Time;durP1;ratioP1;P1;durP2;ratioP2;P2;SDS_P1;SDS_P2;PMS_P1;PMS_P2;Temp;Humidity;BMP_temperature;BMP_pressure;BME280_temperature;BME280_humidity;BME280_pressure;Samples;Min_cycle;Max_cycle;Signal;HPM_P1;HPM_P2
2023/03/20 00:00:45;;;;;;;22.93;14.73;;;13.30;79.70;;;16.17;54.10;101642.69;5136327;27;20222;-57
2023/03/20 00:03:13;;;;;;;24.57;15.77;;;13.30;79.60;;;16.19;54.04;101646.00;5135739;27;20263;-57
2023/03/20 00:05:41;;;;;;;22.10;15.43;;;13.30;79.50;;;16.20;53.77;101642.34;5136122;27;20219;-54
2023/03/20 00:08:08;;;;;;;27.30;16.33;;;13.30;79.50;;;16.21;53.77;101643.97;5126314;27;20636;-56
2023/03/20 00:10:40;;;;;;;24.87;16.70;;;13.30;79.60;;;16.20;53.69;101646.81;5115390;28;20196;-58
2023/03/20 00:13:13;;;;;;;23.43;15.67;;;13.30;79.40;;;16.18;53.68;101633.72;5115062;28;20257;-57
2023/03/20 00:15:43;;;;;;;24.43;16.07;;;13.30;79.50;;;16.20;53.50;101647.66;5114814;28;20184;-56
2023/03/20 00:18:17;;;;;;;24.70;16.27;;;13.30;79.40;;;16.20;53.96;101652.97;5115255;28;20176;-58
2023/03/20 00:20:46;;;;;;;23.23;14.60;;;13.30;79.40;;;16.21;53.68;101649.28;5115336;28;20184;-58
2023/03/20 00:23:13;;;;;;;24.23;16.97;;;13.30;79.40;;;16.22;53.67;101650.94;5114753;28;20215;-57
2023/03/20 00:25:43;;;;;;;24.30;15.43;;;13.30;79.10;;;16.21;53.64;101643.97;5114949;28;20215;-58
2023/03/20 00:28:37;;;;;;;21.17;14.80;;;13.30;79.00;;;16.20;53.44;101646.81;5115337;28;20196;-55
2023/03/20 00:31:17;;;;;;;24.70;15.37;;;13.30;78.90;;;16.20;53.34;101652.13;5118478;28;20199;-57
2023/03/20 00:33:44;;;;;;;21.33;15.63;;;13.30;78.70;;;16.21;53.64;101649.28;5119926;28;20208;-57
2023/03/20 00:36:12;;;;;;;22.47;15.63;;;13.30;78.80;;;16.21;53.57;101649.28;5121021;28;20207;-58
2023/03/20 00:38:39;;;;;;;23.97;15.70;;;13.30;78.00;;;16.19;53.40;101646.00;5121186;28;20195;-58
2023/03/20 00:41:22;;;;;;;26.53;15.63;;;13.30;78.70;;;16.14;53.60;101643.06;5119882;28;20191;-58
2023/03/20 00:43:53;;;;;;;22.67;15.27;;;13.30;78.70;;;16.13;53.39;101641.44;5115907;28;20214;-61
2023/03/20 00:46:21;;;;;;;22.90;15.60;;;13.30;78.60;;;16.14;53.69;101642.28;5114496;28;20208;-55
2023/03/20 00:48:49;;;;;;;24.07;15.77;;;13.30;78.70;;;16.14;53.62;101647.59;5114638;28;20256;-57
2023/03/20 00:51:18;;;;;;;21.00;15.30;;;13.30;78.80;;;16.13;53.47;101649.41;5114412;28;20191;-57
2023/03/20 00:53:45;;;;;;;21.53;15.47;;;13.30;78.90;;;16.12;53.78;101647.75;5113941;28;20687;-59
2023/03/20 00:56:32;;;;;;;25.10;16.33;;;13.30;78.90;;;16.08;53.21;101649.16;5114330;27;20184;-56
2023/03/20 00:59:02;;;;;;;24.13;15.87;;;13.30;79.20;;;16.10;53.86;101646.28;5094065;28;20272;-58
2023/03/20 01:01:31;;;;;;;23.33;17.97;;;13.20;78.90;;;16.10;53.29;101655.09;5093719;28;20200;-58
2023/03/20 01:03:58;;;;;;;25.57;17.37;;;13.20;79.00;;;16.09;53.75;101649.97;5093706;28;20207;-58
2023/03/20 01:06:27;;;;;;;22.97;15.97;;;13.20;79.00;;;16.09;53.58;101645.47;5092866;28;20220;-58
2023/03/20 01:08:56;;;;;;;24.07;17.70;;;13.20;79.00;;;16.10;53.71;101652.44;5125860;27;20187;-59
2023/03/20 01:11:23;;;;;;;23.13;16.33;;;13.20;79.40;;;16.10;53.74;101652.44;5117461;27;20202;-58
2023/03/20 01:13:51;;;;;;;25.40;17.80;;;13.20;79.30;;;16.08;53.80;101658.94;5113920;28;20537;-58
2023/03/20 01:16:22;;;;;;;23.93;17.37;;;13.20;79.20;;;16.04;53.52;101653.19;5113893;28;20198;-55
2023/03/20 01:18:50;;;;;;;23.30;16.77;;;13.20;79.20;;;16.00;54.02;101657.22;5114209;28;20257;-55
2023/03/20 01:21:17;;;;;;;22.90;15.87;;;13.20;79.00;;;15.99;53.63;101654.75;5114220;28;20632;-54
2023/03/20 01:23:47;;;;;;;22.57;15.80;;;13.20;79.00;;;15.99;53.63;101662.72;5114164;28;20598;-56
2023/03/20 01:26:26;;;;;;;21.37;15.00;;;13.10;79.00;;;15.99;53.73;101663.56;5114151;28;20215;-56
2023/03/20 01:28:53;;;;;;;20.87;15.20;;;13.10;79.20;;;15.99;53.74;101671.53;5114162;28;20237;-56
2023/03/20 01:31:20;;;;;;;23.20;15.67;;;13.10;79.20;;;15.97;53.63;101673.56;5113973;28;20200;-58
2023/03/20 01:33:47;;;;;;;19.67;14.70;;;13.10;79.20;;;15.96;54.11;101677.19;5113668;28;20215;-58
2023/03/20 01:36:21;;;;;;;23.63;15.73;;;13.10;79.20;;;15.88;54.24;101674.63;5114216;28;20240;-56
2023/03/20 01:38:53;;;;;;;17.80;13.40;;;13.10;79.30;;;15.86;53.93;101687.28;5114214;28;20279;-55
2023/03/20 01:41:24;;;;;;;22.17;15.53;;;13.10;79.30;;;15.88;53.92;101684.47;5113948;28;20210;-55
2023/03/20 01:43:51;;;;;;;16.87;12.20;;;13.00;79.30;;;15.85;54.00;101683.00;5113447;28;20211;-59
2023/03/20 01:46:24;;;;;;;16.77;10.67;;;13.10;79.30;;;15.81;53.58;101683.56;5113987;28;20222;-58
2023/03/20 01:49:04;;;;;;;12.20;10.03;;;13.00;79.00;;;15.74;53.89;101683.44;5115074;28;20228;-57
2023/03/20 01:51:31;;;;;;;10.50;7.93;;;13.00;79.00;;;15.73;53.78;101687.13;5118174;28;20179;-58
2023/03/20 01:54:06;;;;;;;7.83;6.80;;;12.90;78.80;;;15.68;53.44;101686.84;5117765;28;20698;-58
2023/03/20 01:56:40;;;;;;;7.93;6.97;;;12.90;78.50;;;15.64;53.31;101693.56;5120992;27;20191;-60
2023/03/20 01:59:14;;;;;;;7.20;6.33;;;12.90;78.10;;;15.63;53.80;101685.75;5138730;27;20187;-58
2023/03/20 02:01:43;;;;;;;7.50;6.30;;;12.80;77.90;;;15.63;53.51;101680.44;5138541;27;20251;-55
2023/03/20 02:04:13;;;;;;;7.37;6.00;;;12.80;78.00;;;15.62;53.26;101684.91;5138149;27;20260;-57
2023/03/20 02:06:43;;;;;;;10.90;5.97;;;12.80;78.10;;;15.63;53.12;101691.88;5138406;27;20214;-57
2023/03/20 02:09:12;;;;;;;7.00;6.10;;;12.70;78.10;;;15.59;53.44;101685.31;5119453;27;20184;-58
2023/03/20 02:11:43;;;;;;;7.33;5.90;;;12.70;78.40;;;15.53;53.40;101683.38;5117585;28;20203;-58
2023/03/20 02:14:12;;;;;;;9.07;6.70;;;12.70;78.50;;;15.46;53.71;101688.59;5117287;28;20211;-55
2023/03/20 02:16:40;;;;;;;7.20;6.20;;;12.70;78.60;;;15.41;53.75;101687.47;5117164;28;20215;-55
2023/03/20 02:19:21;;;;;;;7.53;6.70;;;12.60;78.80;;;15.36;53.94;101679.22;5117531;28;20196;-58
2023/03/20 02:22:36;;;;;;;7.37;5.90;;;12.60;79.10;;;15.28;53.95;101682.81;5117434;28;20183;-58
2023/03/20 02:26:03;;;;;;;7.07;5.97;;;12.50;79.20;;;15.26;54.30;101679.47;5117416;28;20639;-59
2023/03/20 02:29:27;;;;;;;7.33;5.90;;;12.50;79.40;;;15.27;54.30;101685.63;5117499;28;20203;-55
2023/03/20 02:32:38;;;;;;;7.13;5.60;;;12.50;79.30;;;15.22;54.13;101685.34;5117478;27;20658;-55
2023/03/20 02:35:49;;;;;;;6.73;5.70;;;12.50;79.30;;;15.18;54.60;101676.09;5117644;28;20191;-57
2023/03/20 02:38:51;;;;;;;8.17;5.90;;;12.40;79.50;;;15.18;54.56;101681.41;5075556;28;20310;-57
2023/03/20 02:41:29;;;;;;;6.27;4.93;;;12.40;79.80;;;15.19;54.52;101683.06;5096405;28;20673;-57
2023/03/20 02:44:06;;;;;;;7.10;6.40;;;12.40;79.50;;;15.21;54.25;101681.06;5095889;28;20243;-56
2023/03/20 02:46:47;;;;;;;6.97;6.00;;;12.40;79.60;;;15.21;54.40;101671.28;5096531;28;20223;-57
2023/03/20 02:49:32;;;;;;;5.60;5.00;;;12.40;79.70;;;15.26;53.93;101668.06;5096794;28;20183;-58
2023/03/20 02:52:09;;;;;;;6.37;5.33;;;12.40;79.70;;;15.29;54.03;101670.34;5096733;28;20204;-58
2023/03/20 02:54:48;;;;;;;6.33;4.70;;;12.40;79.40;;;15.29;54.10;101651.78;5096388;28;20266;-58
2023/03/20 02:57:26;;;;;;;5.33;4.67;;;12.40;79.20;;;15.31;53.84;101663.84;5114175;27;20209;-58
2023/03/20 03:00:00;;;;;;;5.70;5.10;;;12.40;79.00;;;15.31;53.20;101655.06;5136649;27;20699;-58
2023/03/20 03:02:36;;;;;;;6.17;5.20;;;12.40;78.70;;;15.29;53.46;101655.25;5136580;27;20523;-60
2023/03/20 03:05:12;;;;;;;6.53;4.93;;;12.40;78.50;;;15.26;53.45;101652.16;5137326;27;20175;-58
2023/03/20 03:07:44;;;;;;;5.03;4.53;;;12.30;78.10;;;15.26;53.53;101646.84;5131417;27;20192;-57
2023/03/20 03:10:18;;;;;;;5.90;4.80;;;12.30;77.90;;;15.25;53.31;101645.19;5116577;28;20593;-58
2023/03/20 03:12:51;;;;;;;5.77;4.93;;;12.30;77.80;;;15.25;53.34;101637.25;5116628;28;20179;-56
2023/03/20 03:15:26;;;;;;;5.70;4.30;;;12.40;77.80;;;15.26;53.10;101637.03;5116343;28;20191;-58
2023/03/20 03:17:57;;;;;;;5.83;5.00;;;12.30;77.80;;;15.27;53.05;101632.56;5116447;28;20272;-57
2023/03/20 03:20:29;;;;;;;5.50;4.30;;;12.30;77.60;;;15.27;52.91;101629.91;5116446;28;20188;-56
2023/03/20 03:22:57;;;;;;;5.80;4.73;;;12.40;77.60;;;15.30;52.77;101629.56;5116085;28;20685;-58
2023/03/20 03:25:31;;;;;;;5.53;4.43;;;12.30;77.50;;;15.31;52.64;101623.22;5115972;28;20208;-58
2023/03/20 03:28:06;;;;;;;7.17;5.40;;;12.30;77.60;;;15.33;52.82;101626.56;5116175;28;20665;-58
2023/03/20 03:30:38;;;;;;;6.60;4.77;;;12.40;77.60;;;15.34;52.90;101613.09;5116225;28;20176;-60
2023/03/20 03:33:16;;;;;;;6.67;4.57;;;12.40;77.40;;;15.34;52.80;101614.91;5116175;28;20243;-57
2023/03/20 03:35:45;;;;;;;6.83;5.23;;;12.40;77.40;;;15.35;52.45;101608.63;5116012;28;20609;-56
2023/03/20 03:38:28;;;;;;;5.57;4.97;;;12.40;77.20;;;15.31;52.52;101609.97;5116307;27;20215;-57
2023/03/20 03:41:16;;;;;;;6.00;5.03;;;12.40;77.30;;;15.28;52.66;101610.34;5116220;28;20188;-57
2023/03/20 03:43:51;;;;;;;5.67;4.83;;;12.40;77.20;;;15.29;52.57;101611.97;5115622;28;20267;-55
2023/03/20 03:46:29;;;;;;;7.23;4.60;;;12.40;77.20;;;15.26;52.51;101601.75;5114812;28;20317;-58
2023/03/20 03:48:58;;;;;;;4.80;4.33;;;12.40;77.30;;;15.26;52.66;101607.06;5115734;28;20664;-56
2023/03/20 03:51:30;;;;;;;6.57;5.87;;;12.40;77.30;;;15.23;52.54;101599.47;5115946;28;20245;-57
2023/03/20 03:54:04;;;;;;;6.17;5.43;;;12.40;77.30;;;15.20;52.89;101605.97;5115388;28;20210;-57
2023/03/20 03:56:37;;;;;;;7.10;5.13;;;12.30;77.40;;;15.19;52.59;101608.81;5118620;27;20281;-57
2023/03/20 03:59:11;;;;;;;6.03;5.37;;;12.30;77.40;;;15.17;53.05;101608.97;5136311;27;20187;-57
2023/03/20 04:01:43;;;;;;;6.50;5.33;;;12.30;77.50;;;15.17;52.76;101602.84;5135920;27;20321;-58
2023/03/20 04:04:14;;;;;;;7.07;5.87;;;12.30;77.70;;;15.18;52.80;101612.47;5136018;27;20211;-58
2023/03/20 04:06:42;;;;;;;7.40;6.53;;;12.30;77.90;;;15.18;53.14;101609.81;5135774;27;20211;-56
2023/03/20 04:09:09;;;;;;;6.03;5.43;;;12.30;78.00;;;15.17;53.02;101610.78;5117326;27;20196;-55
2023/03/20 04:11:37;;;;;;;6.60;5.87;;;12.30;78.00;;;15.16;53.18;101604.69;5115193;28;20192;-57
2023/03/20 04:14:04;;;;;;;7.43;6.40;;;12.20;78.20;;;15.14;53.38;101613.84;5115052;28;20216;-56
2023/03/20 04:16:31;;;;;;;9.13;6.53;;;12.20;78.20;;;15.09;53.50;101614.38;5115020;27;20192;-58
2023/03/20 04:18:58;;;;;;;7.87;6.73;;;12.20;78.30;;;15.07;53.55;101610.28;5114979;28;20184;-57
2023/03/20 04:21:25;;;;;;;7.63;6.20;;;12.20;78.50;;;15.05;53.60;101612.28;5114699;28;20200;-57
2023/03/20 04:23:52;;;;;;;8.03;6.83;;;12.20;78.50;;;15.05;53.56;101617.59;5115019;28;20215;-56
2023/03/20 04:26:20;;;;;;;8.00;7.13;;;12.20;78.80;;;15.04;53.85;101615.94;5115897;28;20226;-56
2023/03/20 04:28:49;;;;;;;8.87;7.23;;;12.20;78.90;;;15.04;53.97;101610.63;5115724;28;20195;-53
2023/03/20 04:31:16;;;;;;;7.13;6.30;;;12.10;79.00;;;15.02;53.87;101612.63;5114912;28;20574;-54
2023/03/20 04:33:44;;;;;;;7.07;6.33;;;12.10;79.10;;;15.02;54.00;101615.28;5114356;28;20264;-56
2023/03/20 04:36:11;;;;;;;9.37;7.70;;;12.10;79.30;;;15.01;54.07;101622.41;5114614;28;20196;-55
2023/03/20 04:38:38;;;;;;;9.10;7.17;;;12.10;79.40;;;15.04;53.99;101605.31;5116536;28;20192;-58
2023/03/20 04:41:06;;;;;;;8.10;6.33;;;12.10;79.60;;;15.04;53.97;101600.84;5114670;28;20274;-57
2023/03/20 04:43:33;;;;;;;8.87;6.90;;;12.10;79.70;;;15.03;54.20;101595.72;5114348;28;20207;-58
2023/03/20 04:46:02;;;;;;;8.53;7.50;;;12.10;79.80;;;15.04;54.04;101597.38;5114113;28;20660;-57
2023/03/20 04:48:29;;;;;;;8.03;7.20;;;12.10;79.80;;;15.04;54.14;101600.03;5114900;28;20206;-55
2023/03/20 04:50:56;;;;;;;7.97;6.63;;;12.10;79.80;;;15.02;54.71;101594.91;5114729;28;20636;-58
2023/03/20 04:53:23;;;;;;;9.53;7.33;;;12.10;79.70;;;15.01;54.29;101584.47;5114029;28;20695;-58
2023/03/20 04:55:53;;;;;;;9.47;7.67;;;12.10;79.70;;;14.95;54.25;101590.50;5114346;28;20658;-58
2023/03/20 04:58:20;;;;;;;7.70;6.90;;;12.10;79.80;;;14.90;54.50;101589.22;5132387;27;20194;-58
2023/03/20 05:00:47;;;;;;;10.00;8.37;;;12.10;79.80;;;14.88;54.42;101601.81;5134820;27;20655;-57
2023/03/20 05:03:15;;;;;;;10.83;8.27;;;12.10;79.90;;;14.85;54.66;101591.59;5134483;27;20630;-58
2023/03/20 05:05:42;;;;;;;7.90;6.80;;;12.00;79.70;;;14.83;54.78;101603.38;5134708;27;20194;-58
2023/03/20 05:08:09;;;;;;;10.30;7.90;;;12.00;79.80;;;14.81;54.67;101608.03;5124537;27;20210;-56
2023/03/20 05:10:36;;;;;;;10.13;7.47;;;12.00;79.90;;;14.79;54.72;101612.69;5114161;28;20203;-56
2023/03/20 05:13:03;;;;;;;8.33;7.37;;;12.00;79.90;;;14.79;54.73;101610.03;5113889;28;20323;-57
2023/03/20 05:15:30;;;;;;;9.37;7.27;;;12.00;80.10;;;14.80;54.79;101607.22;5113892;28;20228;-55
2023/03/20 05:17:57;;;;;;;8.63;7.33;;;12.00;80.10;;;14.82;54.78;101618.47;5113954;28;20705;-57
2023/03/20 05:20:26;;;;;;;8.07;6.97;;;11.90;80.10;;;14.82;54.75;101618.47;5113904;28;20203;-57
2023/03/20 05:22:53;;;;;;;9.00;6.73;;;11.90;80.10;;;14.82;54.63;101621.13;5113663;28;20680;-57
2023/03/20 05:25:20;;;;;;;8.83;6.90;;;11.90;80.20;;;14.83;54.89;101617.44;5113622;28;20207;-56
2023/03/20 05:27:46;;;;;;;10.37;8.70;;;11.90;80.20;;;14.84;54.82;101616.44;5113445;28;20364;-59
2023/03/20 05:30:14;;;;;;;10.53;9.43;;;11.90;80.30;;;14.85;54.99;101604.84;5114020;28;20184;-58
2023/03/20 05:32:42;;;;;;;9.77;7.70;;;12.00;80.50;;;14.86;54.82;101619.75;5113087;28;20191;-58
2023/03/20 05:35:10;;;;;;;10.03;7.80;;;12.00;80.40;;;14.87;54.91;101616.09;5113322;28;20223;-58
2023/03/20 05:37:38;;;;;;;11.20;8.50;;;12.00;81.30;;;14.88;54.83;101617.72;5113432;28;20291;-58
2023/03/20 05:40:09;;;;;;;11.60;8.73;;;12.00;80.60;;;14.89;54.75;101624.69;5112692;28;20183;-58
2023/03/20 05:42:37;;;;;;;10.97;8.67;;;12.00;80.50;;;14.89;54.75;101623.84;5112835;28;20200;-55
2023/03/20 05:45:05;;;;;;;9.83;8.13;;;12.00;80.80;;;14.88;54.81;101630.97;5113630;28;20188;-58
2023/03/20 05:47:32;;;;;;;9.10;7.83;;;12.00;80.70;;;14.87;54.91;101629.34;5113625;28;20211;-57
2023/03/20 05:49:59;;;;;;;10.17;8.27;;;12.00;80.80;;;14.88;55.13;101628.31;5113912;28;20192;-57
2023/03/20 05:52:26;;;;;;;9.33;8.13;;;12.00;81.30;;;14.91;55.13;101632.44;5113342;28;20184;-58
2023/03/20 05:54:54;;;;;;;10.27;8.60;;;12.00;81.30;;;14.91;55.25;101633.28;5113535;28;20211;-58
2023/03/20 05:57:21;;;;;;;11.23;9.23;;;12.00;81.30;;;14.92;55.36;101639.41;5122759;28;20667;-59
2023/03/20 05:59:48;;;;;;;10.13;8.50;;;12.00;81.30;;;14.90;55.36;101642.22;5134066;27;20252;-56
2023/03/20 06:02:16;;;;;;;12.50;8.27;;;12.00;81.30;;;14.90;55.38;101647.53;5133015;27;20191;-58
2023/03/20 06:04:43;;;;;;;11.00;8.90;;;12.00;81.20;;;14.86;55.51;101645.41;5133919;28;20218;-56
2023/03/20 06:07:10;;;;;;;10.73;8.37;;;12.00;81.10;;;14.83;55.13;101641.28;5132002;27;20654;-57
2023/03/20 06:09:37;;;;;;;11.77;8.47;;;12.00;81.10;;;14.84;55.15;101642.97;5113116;28;20192;-59
2023/03/20 06:12:06;;;;;;;9.73;8.00;;;12.00;81.20;;;14.86;55.30;101638.28;5113528;28;20199;-55
2023/03/20 06:14:33;;;;;;;12.07;8.37;;;12.00;81.10;;;14.86;55.19;101646.25;5112962;28;20227;-56
2023/03/20 06:17:00;;;;;;;9.50;8.30;;;12.00;81.00;;;14.83;55.33;101643.94;5112773;28;20204;-57
2023/03/20 06:19:27;;;;;;;12.03;9.40;;;12.00;80.90;;;14.80;55.12;101646.16;5113713;28;20196;-57
2023/03/20 06:21:54;;;;;;;10.60;8.10;;;11.90;80.60;;;14.78;55.28;101656.13;5111843;28;20636;-58
2023/03/20 06:24:22;;;;;;;10.87;8.20;;;11.90;81.40;;;14.80;55.06;101648.81;5113096;28;20208;-58
2023/03/20 06:26:49;;;;;;;10.83;8.43;;;11.90;80.60;;;14.78;55.34;101649.00;5113101;28;20541;-58
2023/03/20 06:29:17;;;;;;;10.47;8.83;;;11.90;80.50;;;14.79;55.28;101655.09;5113031;28;20196;-58
2023/03/20 06:31:44;;;;;;;10.70;8.37;;;11.90;80.50;;;14.79;54.91;101647.13;5112621;28;20195;-58
2023/03/20 06:34:11;;;;;;;9.93;8.07;;;11.90;80.40;;;14.78;54.96;101649.00;5113055;28;20250;-56
2023/03/20 06:36:38;;;;;;;13.13;8.53;;;11.90;80.10;;;14.76;54.60;101650.97;5117092;28;20560;-59
2023/03/20 06:39:06;;;;;;;9.50;7.83;;;11.90;79.60;;;14.78;54.64;101643.69;5117184;28;20192;-54
2023/03/20 06:41:33;;;;;;;9.87;7.77;;;11.90;79.60;;;14.82;54.18;101668.81;5116708;28;20257;-57
2023/03/20 06:44:02;;;;;;;11.97;8.20;;;11.90;79.40;;;14.82;53.90;101658.22;5116260;28;20220;-57
2023/03/20 06:46:30;;;;;;;10.40;7.60;;;11.90;78.80;;;14.80;53.83;101662.88;5116862;28;20188;-58
2023/03/20 06:48:57;;;;;;;11.60;7.57;;;12.00;78.40;;;14.82;53.64;101650.28;5116727;28;20184;-57
2023/03/20 06:51:25;;;;;;;7.90;6.97;;;11.90;78.10;;;14.82;53.00;101657.38;5116404;28;20211;-59
2023/03/20 06:53:51;;;;;;;10.93;7.53;;;12.00;77.70;;;14.82;53.19;101666.16;5116046;28;20216;-58
2023/03/20 06:56:19;;;;;;;8.87;7.47;;;12.00;77.70;;;14.86;53.17;101678.06;5115938;27;20276;-58
2023/03/20 06:58:45;;;;;;;9.93;7.23;;;12.00;77.70;;;14.90;52.98;101666.09;5137154;27;20183;-58
2023/03/20 07:01:16;;;;;;;8.63;7.23;;;12.00;77.60;;;14.93;52.76;101672.84;5137538;27;20534;-59
2023/03/20 07:03:45;;;;;;;8.00;6.77;;;12.00;77.20;;;14.89;52.69;101675.06;5136599;27;20215;-58
2023/03/20 07:06:12;;;;;;;8.23;6.80;;;12.00;76.80;;;14.92;52.66;101665.91;5137575;27;20198;-58
2023/03/20 07:08:39;;;;;;;8.53;7.40;;;12.00;76.80;;;14.94;52.51;101666.56;5123215;27;20222;-59
2023/03/20 07:11:06;;;;;;;8.60;7.30;;;12.00;76.60;;;14.98;52.45;101670.50;5117405;28;20206;-60
2023/03/20 07:13:33;;;;;;;9.63;7.60;;;12.00;76.50;;;15.03;52.42;101665.47;5116389;28;20211;-57
2023/03/20 07:16:02;;;;;;;9.17;7.93;;;12.10;76.50;;;15.06;52.17;101672.25;5115131;28;20234;-58
2023/03/20 07:18:31;;;;;;;9.07;7.87;;;12.10;76.40;;;15.06;52.08;101666.94;5118031;28;20525;-58
2023/03/20 07:21:02;;;;;;;9.63;7.17;;;12.10;76.30;;;15.05;51.64;101660.00;5115081;28;20656;-61
2023/03/20 07:23:30;;;;;;;8.93;7.03;;;12.10;75.90;;;15.04;51.63;101666.31;5115983;28;20226;-54
2023/03/20 07:25:58;;;;;;;9.23;8.13;;;12.10;75.60;;;15.02;51.85;101671.81;5117246;28;20192;-56
2023/03/20 07:28:25;;;;;;;9.30;6.77;;;12.10;75.40;;;15.05;51.57;101666.13;5117168;28;20215;-56
2023/03/20 07:30:53;;;;;;;10.80;7.27;;;12.10;75.50;;;15.12;51.46;101671.53;5115940;28;20540;-57
2023/03/20 07:33:20;;;;;;;10.33;6.73;;;12.20;75.50;;;15.13;51.30;101679.31;5115256;28;20207;-57
2023/03/20 07:35:52;;;;;;;8.77;6.90;;;12.20;75.00;;;15.13;51.52;101679.31;5116294;28;20195;-59
2023/03/20 07:38:22;;;;;;;9.37;7.30;;;12.20;74.80;;;15.09;50.80;101679.84;5116449;28;20191;-59
2023/03/20 07:40:52;;;;;;;8.67;6.87;;;12.20;73.90;;;15.10;50.94;101676.19;5115793;27;20238;-58
2023/03/20 07:43:20;;;;;;;8.57;7.07;;;12.20;74.20;;;15.15;50.75;101687.91;5115231;28;20224;-58
2023/03/20 07:45:47;;;;;;;8.60;6.37;;;12.20;74.10;;;15.16;50.58;101683.41;5115576;28;20551;-58
2023/03/20 07:48:14;;;;;;;10.70;7.00;;;12.30;73.90;;;15.18;50.72;101676.09;5114225;28;20218;-58
2023/03/20 07:50:44;;;;;;;9.57;6.93;;;12.30;73.80;;;15.20;50.29;101684.69;5115505;28;20176;-58
2023/03/20 07:53:11;;;;;;;11.20;8.07;;;12.30;73.70;;;15.22;50.05;101682.69;5114881;27;20318;-59
2023/03/20 07:55:39;;;;;;;8.63;7.43;;;12.30;73.30;;;15.23;50.02;101685.19;5115742;28;20527;-57
2023/03/20 07:58:07;;;;;;;11.23;7.70;;;12.30;73.00;;;15.25;49.97;101687.63;5131319;27;20187;-60
2023/03/20 08:00:35;;;;;;;12.37;8.03;;;12.30;73.00;;;15.26;49.60;101689.28;5134934;27;20188;-58
2023/03/20 08:03:02;;;;;;;9.53;7.70;;;12.30;72.90;;;15.26;49.44;101684.78;5135750;27;20275;-58
2023/03/20 08:05:30;;;;;;;10.00;8.00;;;12.30;72.80;;;15.26;49.53;101689.28;5130015;27;20206;-59
2023/03/20 08:07:57;;;;;;;8.97;6.63;;;12.40;72.20;;;15.25;49.53;101682.34;5124085;27;20211;-57
2023/03/20 08:10:24;;;;;;;13.60;7.27;;;12.40;72.20;;;15.29;49.50;101686.25;5126941;27;20188;-57
2023/03/20 08:12:52;;;;;;;7.73;6.90;;;12.40;72.30;;;15.32;49.26;101683.25;5115263;28;20192;-57
2023/03/20 08:15:19;;;;;;;9.13;7.33;;;12.40;72.20;;;15.35;49.38;101693.50;5115254;28;20211;-56
2023/03/20 08:17:47;;;;;;;8.67;5.70;;;12.40;72.20;;;15.39;49.32;101689.47;5115511;28;20652;-56
2023/03/20 08:20:15;;;;;;;8.90;6.60;;;12.40;72.20;;;15.46;49.47;101682.47;5113799;28;20556;-57
2023/03/20 08:22:44;;;;;;;7.77;6.47;;;12.50;72.40;;;15.53;48.90;101683.38;5113296;28;20236;-56
2023/03/20 08:25:11;;;;;;;11.20;6.90;;;12.50;72.10;;;15.55;48.69;101691.97;5115132;28;20194;-57
2023/03/20 08:27:38;;;;;;;8.80;6.37;;;12.50;71.50;;;15.51;48.25;101693.34;5115129;28;20211;-57
2023/03/20 08:30:08;;;;;;;8.43;6.17;;;12.50;71.20;;;15.50;48.36;101705.78;5115285;28;20191;-57
2023/03/20 08:32:36;;;;;;;9.13;6.60;;;12.60;71.30;;;15.52;48.44;101705.63;5114653;28;20191;-58
2023/03/20 08:35:04;;;;;;;9.70;6.73;;;12.60;71.70;;;15.50;48.27;101707.63;5115508;28;20240;-55
2023/03/20 08:37:31;;;;;;;8.50;6.67;;;12.60;70.80;;;15.50;48.60;101711.09;5114324;28;20225;-56
2023/03/20 08:39:59;;;;;;;7.83;5.83;;;12.60;70.70;;;15.51;48.40;101709.28;5113462;28;20221;-55
2023/03/20 08:42:26;;;;;;;10.17;7.43;;;12.60;70.80;;;15.57;48.32;101706.72;5110147;27;20234;-59
2023/03/20 08:44:53;;;;;;;11.07;6.93;;;12.60;70.80;;;15.64;48.17;101704.16;5113277;28;20530;-57
2023/03/20 08:47:21;;;;;;;10.47;7.23;;;12.70;70.90;;;15.70;48.25;101708.72;5112663;28;20195;-59
2023/03/20 08:49:49;;;;;;;14.13;6.90;;;12.60;70.30;;;15.72;47.76;101709.38;5111414;28;20195;-57
2023/03/20 08:52:16;;;;;;;12.43;7.30;;;12.70;70.10;;;15.79;47.79;101701.47;5112786;27;20525;-58
2023/03/20 08:54:43;;;;;;;10.23;7.67;;;12.70;70.20;;;15.83;47.52;101708.88;5111806;28;20280;-58
2023/03/20 08:57:10;;;;;;;8.33;6.83;;;12.80;69.80;;;15.86;47.48;101707.69;5120768;27;20628;-55
2023/03/20 08:59:36;;;;;;;10.07;6.77;;;12.80;69.30;;;15.85;46.85;101709.56;5129612;27;20197;-56
2023/03/20 09:02:05;;;;;;;7.33;6.40;;;12.90;68.70;;;15.87;46.75;101704.88;5112533;28;20199;-60
2023/03/20 09:04:34;;;;;;;9.77;6.67;;;12.90;68.50;;;15.90;46.77;101706.34;5116365;28;20211;-57
2023/03/20 09:07:01;;;;;;;9.10;6.70;;;12.90;68.50;;;15.94;46.83;101703.13;5115645;28;20218;-58
2023/03/20 09:09:29;;;;;;;7.97;6.63;;;12.90;68.50;;;16.02;46.69;101700.34;5136506;27;20214;-55
2023/03/20 09:11:57;;;;;;;7.87;6.17;;;12.90;68.30;;;16.09;46.56;101693.28;5114802;28;20253;-59
2023/03/20 09:14:26;;;;;;;9.33;6.60;;;13.00;68.30;;;16.07;45.82;101692.66;5111995;27;20208;-61
2023/03/20 09:16:53;;;;;;;6.97;6.17;;;13.10;67.40;;;16.17;45.83;101685.22;5107159;28;20283;-57
2023/03/20 09:19:20;;;;;;;7.73;5.90;;;13.10;67.10;;;16.21;45.45;101686.47;5097149;28;20184;-57
2023/03/20 09:21:49;;;;;;;7.97;6.53;;;13.20;66.70;;;16.26;44.98;101688.56;5094004;28;20562;-59
2023/03/20 09:24:16;;;;;;;11.47;6.70;;;13.20;66.10;;;16.35;45.12;101698.09;5093635;28;20257;-57
2023/03/20 09:26:43;;;;;;;9.80;6.27;;;13.20;66.00;;;16.44;44.81;101696.94;5093885;28;20195;-59
2023/03/20 09:29:10;;;;;;;9.53;6.37;;;13.30;65.90;;;16.55;44.80;101698.28;5093902;28;20220;-58
2023/03/20 09:31:37;;;;;;;7.60;6.50;;;13.30;65.70;;;16.67;44.43;101702.09;5094062;28;20196;-56
2023/03/20 09:34:04;;;;;;;11.33;6.33;;;13.40;65.80;;;16.81;44.24;101695.88;5094626;28;20208;-57
2023/03/20 09:36:32;;;;;;;9.67;6.53;;;13.50;66.00;;;17.01;44.29;101696.88;5113416;28;20196;-58
2023/03/20 09:39:00;;;;;;;7.40;6.27;;;13.60;65.30;;;17.13;43.64;101705.16;5110331;28;20188;-56
2023/03/20 09:41:31;;;;;;;7.30;5.80;;;13.70;64.70;;;17.12;43.16;101701.66;5092574;27;20213;-60
2023/03/20 09:44:12;;;;;;;8.50;6.17;;;13.80;63.80;;;17.07;42.96;101701.41;5091439;28;20515;-59
2023/03/20 09:47:07;;;;;;;6.60;5.37;;;13.90;63.60;;;16.97;43.09;101702.78;5097094;28;20272;-59
2023/03/20 09:50:06;;;;;;;8.67;5.60;;;13.90;63.10;;;16.87;43.47;101703.09;5108872;28;20266;-56
2023/03/20 09:52:39;;;;;;;13.97;8.00;;;13.80;63.10;;;16.85;43.30;101702.47;5105846;28;21442;-59
2023/03/20 09:55:15;;;;;;;10.10;6.37;;;13.80;63.00;;;16.74;43.00;101703.81;5104458;28;20556;-58
2023/03/20 09:57:48;;;;;;;8.13;6.17;;;13.80;62.30;;;16.70;42.79;101704.38;5123890;27;20224;-60
2023/03/20 10:00:19;;;;;;;7.90;5.90;;;13.70;62.40;;;16.68;43.14;101704.56;5114032;28;20278;-59
2023/03/20 10:02:51;;;;;;;8.80;6.43;;;13.70;62.40;;;16.68;43.07;101703.75;5113170;28;20207;-60
2023/03/20 10:05:24;;;;;;;7.73;5.43;;;13.70;62.00;;;16.66;42.65;101708.44;5111586;28;20214;-59
2023/03/20 10:07:55;;;;;;;6.47;5.60;;;13.70;63.10;;;16.66;43.09;101703.13;5118604;28;20217;-59
2023/03/20 10:10:36;;;;;;;10.53;8.00;;;13.60;62.20;;;16.69;42.91;101706.22;5116058;28;20192;-58
2023/03/20 10:13:34;;;;;;;8.70;6.00;;;13.70;62.60;;;16.73;42.51;101701.34;5117034;28;20306;-57
2023/03/20 10:16:16;;;;;;;7.67;6.47;;;13.70;62.20;;;16.70;42.64;101696.41;5115426;28;20223;-58
2023/03/20 10:18:55;;;;;;;6.70;5.37;;;13.70;61.70;;;16.77;42.70;101698.09;5112078;28;20245;-58
2023/03/20 10:21:38;;;;;;;6.40;5.10;;;13.80;62.20;;;16.76;42.48;101696.44;5105076;28;20721;-57
2023/03/20 10:24:18;;;;;;;7.60;5.57;;;13.80;61.30;;;16.76;42.53;101690.31;5096576;28;20223;-56